Time;durP1;ratioP1;P1;durP2;ratioP2;P2;SDS_P1;SDS_P2;PMS_P1;PMS_P2;Temp;Humidity;BMP_temperature;BMP_pressure;BME280_temperature;BME280_humidity;BME280_pressure;Samples;Min_cycle;Max_cycle;Signal;HPM_P1;HPM_P2
2022/07/05 00:00:31;;;;;;;;;;;;;;;18.17;52.56;102029.59;5005804;28;19921;-91
2022/07/05 00:02:56;;;;;;;;;;;;;;;17.95;51.95;102023.63;5004780;28;19925;-90
2022/07/05 00:05:21;;;;;;;;;;;;;;;17.79;50.85;102024.44;5007778;28;19963;-91
2022/07/05 00:07:46;;;;;;;;;;;;;;;17.81;50.73;102027.00;5006935;28;20042;-91
2022/07/05 00:10:12;;;;;;;;;;;;;;;17.67;53.40;102025.00;5006192;28;20012;-91
2022/07/05 00:12:37;;;;;;;;;;;;;;;17.58;51.78;102021.03;5009241;28;19917;-91
2022/07/05 00:15:02;;;;;;;;;;;;;;;17.64;51.06;102019.84;5005274;28;19967;-91
2022/07/05 00:17:28;;;;;;;;;;;;;;;17.71;51.47;102026.59;5010843;28;19975;-90
2022/07/05 00:19:53;;;;;;;;;;;;;;;17.76;51.16;102011.19;4998749;28;20388;-90
2022/07/05 00:22:18;;;;;;;;;;;;;;;17.76;50.66;102013.88;5006367;28;19949;-90
2022/07/05 00:24:43;;;;;;;;;;;;;;;17.75;51.27;102012.16;5006121;28;20279;-90
2022/07/05 00:27:09;;;;;;;;;;;;;;;17.71;50.96;102013.22;5005060;28;19917;-91
2022/07/05 00:29:34;;;;;;;;;;;;;;;17.63;51.27;102012.78;5005281;28;19913;-90
2022/07/05 00:31:59;;;;;;;;;;;;;;;17.58;51.55;102007.66;5007438;28;19924;-92
2022/07/05 00:34:24;;;;;;;;;;;;;;;17.43;51.56;102018.25;5007764;28;19913;-91
2022/07/05 00:36:49;;;;;;;;;;;;;;;17.28;51.37;102011.84;5009385;28;19921;-91
2022/07/05 00:39:15;;;;;;;;;;;;;;;17.12;53.62;102009.09;5010547;28;20234;-91
2022/07/05 00:41:40;;;;;;;;;;;;;;;16.99;53.33;102008.81;5007696;28;19917;-90
2022/07/05 00:44:07;;;;;;;;;;;;;;;16.91;52.99;102012.78;5007401;28;19916;-91
2022/07/05 00:46:32;;;;;;;;;;;;;;;16.98;52.65;102016.91;5004779;28;19917;-91
2022/07/05 00:48:58;;;;;;;;;;;;;;;17.02;52.72;102013.13;5009687;28;19913;-91
2022/07/05 00:51:24;;;;;;;;;;;;;;;17.03;55.29;102014.88;5008673;28;19917;-92
2022/07/05 00:53:50;;;;;;;;;;;;;;;16.76;53.23;102009.91;5006568;28;19920;-91
2022/07/05 00:56:15;;;;;;;;;;;;;;;16.63;53.48;102011.38;5008785;28;20004;-91
2022/07/05 00:58:40;;;;;;;;;;;;;;;16.55;53.42;102013.53;5005645;28;19922;-91
2022/07/05 01:01:07;;;;;;;;;;;;;;;16.62;53.19;102012.31;5009330;28;20270;-92
2022/07/05 01:03:33;;;;;;;;;;;;;;;16.44;57.43;102016.72;5004352;28;19925;-91
2022/07/05 01:06:00;;;;;;;;;;;;;;;16.19;55.26;102018.78;5006499;28;19919;-91
2022/07/05 01:08:26;;;;;;;;;;;;;;;16.26;53.98;102013.06;5006251;28;19952;-91
2022/07/05 01:10:52;;;;;;;;;;;;;;;16.43;53.62;102020.31;5007688;28;20292;-90
2022/07/05 01:13:17;;;;;;;;;;;;;;;16.53;53.89;102021.63;5005859;28;19909;-91
2022/07/05 01:15:42;;;;;;;;;;;;;;;16.55;53.52;102013.53;5005715;28;20389;-91
2022/07/05 01:18:08;;;;;;;;;;;;;;;16.54;53.34;102020.69;5008249;28;19909;-91
2022/07/05 01:20:34;;;;;;;;;;;;;;;16.32;53.94;102018.16;5003542;28;20333;-90
2022/07/05 01:23:01;;;;;;;;;;;;;;;16.18;55.71;102017.00;5007565;28;19913;-92
2022/07/05 01:25:27;;;;;;;;;;;;;;;16.13;54.95;102017.22;5005220;28;20597;-91
2022/07/05 01:27:53;;;;;;;;;;;;;;;16.03;55.20;102021.25;5005018;28;19913;-90
2022/07/05 01:30:19;;;;;;;;;;;;;;;15.99;55.32;102016.97;5005877;28;20391;-91
2022/07/05 01:32:44;;;;;;;;;;;;;;;16.00;56.22;102016.91;5002781;28;19917;-91
2022/07/05 01:35:11;;;;;;;;;;;;;;;15.82;54.73;102015.91;5006140;28;19920;-92
2022/07/05 01:37:36;;;;;;;;;;;;;;;15.77;55.66;102012.59;5005424;28;19913;-91
2022/07/05 01:40:02;;;;;;;;;;;;;;;15.71;56.06;102014.63;5007074;28;19920;-91
2022/07/05 01:42:28;;;;;;;;;;;;;;;15.72;58.78;102019.06;5006902;28;19909;-91
2022/07/05 01:44:53;;;;;;;;;;;;;;;15.67;55.85;102013.91;5002538;28;20316;-91
2022/07/05 01:47:18;;;;;;;;;;;;;;;15.58;56.65;102022.28;5007469;28;20291;-91
2022/07/05 01:49:45;;;;;;;;;;;;;;;15.49;56.96;102022.66;5006700;28;20440;-91
2022/07/05 01:52:11;;;;;;;;;;;;;;;15.15;59.61;102024.03;5005238;28;19918;-91
2022/07/05 01:54:36;;;;;;;;;;;;;;;15.07;58.26;102022.63;5007584;28;19937;-91
2022/07/05 01:57:03;;;;;;;;;;;;;;;15.22;57.09;102019.31;5009842;28;19975;-91
2022/07/05 01:59:29;;;;;;;;;;;;;;;15.29;56.82;102018.13;5006574;28;19913;-91
2022/07/05 02:01:54;;;;;;;;;;;;;;;15.28;57.39;102009.28;5007943;28;20017;-91
2022/07/05 02:04:20;;;;;;;;;;;;;;;15.30;57.33;102010.09;5004458;28;20012;-91
2022/07/05 02:06:45;;;;;;;;;;;;;;;15.21;56.97;102015.81;5008082;28;19913;-90
2022/07/05 02:09:10;;;;;;;;;;;;;;;15.14;58.42;102016.97;5008209;28;19968;-91
2022/07/05 02:11:36;;;;;;;;;;;;;;;15.01;58.26;102007.72;5007162;28;19922;-91
2022/07/05 02:14:01;;;;;;;;;;;;;;;14.94;58.11;102012.44;5008420;28;19996;-93
2022/07/05 02:16:27;;;;;;;;;;;;;;;14.83;57.99;102003.13;5003358;28;19945;-91
2022/07/05 02:18:52;;;;;;;;;;;;;;;14.76;57.73;102005.19;4989963;28;19917;-91
2022/07/05 02:21:17;;;;;;;;;;;;;;;14.77;58.28;102010.44;5007238;28;19960;-91
2022/07/05 02:23:43;;;;;;;;;;;;;;;14.77;60.71;102007.78;5008007;28;19920;-92
2022/07/05 02:26:08;;;;;;;;;;;;;;;14.76;58.16;101998.06;4999561;28;19913;-91
2022/07/05 02:28:33;;;;;;;;;;;;;;;14.88;57.34;101996.72;5008055;28;19928;-93
2022/07/05 02:30:58;;;;;;;;;;;;;;;14.99;56.93;102010.47;4999997;28;19968;-92
2022/07/05 02:33:24;;;;;;;;;;;;;;;15.09;56.99;102007.44;5007429;28;20280;-92
2022/07/05 02:35:49;;;;;;;;;;;;;;;15.16;57.07;102008.94;5004538;28;20191;-91
2022/07/05 02:38:15;;;;;;;;;;;;;;;15.08;59.54;102013.69;5004115;28;19926;-91
2022/07/05 02:40:40;;;;;;;;;;;;;;;14.84;58.87;102013.75;5006283;28;19968;-92
2022/07/05 02:43:05;;;;;;;;;;;;;;;14.95;57.33;102008.84;5007233;28;19914;-92
2022/07/05 02:45:30;;;;;;;;;;;;;;;15.03;56.90;102011.22;5006282;28;20613;-92
2022/07/05 02:47:57;;;;;;;;;;;;;;;14.86;59.49;102021.66;5011681;28;20074;-91
2022/07/05 02:50:22;;;;;;;;;;;;;;;14.62;62.49;102019.00;5006072;28;19913;-91
2022/07/05 02:52:47;;;;;;;;;;;;;;;14.53;59.94;102020.22;5003681;28;19921;-92
2022/07/05 02:55:12;;;;;;;;;;;;;;;14.60;58.36;102022.69;5003632;28;19917;-91
2022/07/05 02:57:38;;;;;;;;;;;;;;;14.76;60.13;102029.13;5001913;28;20415;-91
2022/07/05 03:00:03;;;;;;;;;;;;;;;14.80;58.01;102034.28;4995394;28;20222;-91
2022/07/05 03:02:29;;;;;;;;;;;;;;;14.65;59.46;102037.53;5006102;28;20016;-91
2022/07/05 03:04:54;;;;;;;;;;;;;;;14.56;60.11;102037.03;4988239;28;19917;-91
2022/07/05 03:07:19;;;;;;;;;;;;;;;14.64;59.82;102030.50;5006949;28;19924;-91
2022/07/05 03:09:44;;;;;;;;;;;;;;;14.80;58.40;102026.28;5002279;28;19914;-91
2022/07/05 03:12:10;;;;;;;;;;;;;;;14.93;59.13;102028.50;5001705;28;19967;-92
2022/07/05 03:14:35;;;;;;;;;;;;;;;15.01;58.46;102037.03;4990826;28;20007;-91
2022/07/05 03:17:00;;;;;;;;;;;;;;;14.94;57.35;102028.41;5005916;28;20515;-91
2022/07/05 03:19:26;;;;;;;;;;;;;;;14.98;57.55;102031.84;5007332;28;20280;-91
2022/07/05 03:21:51;;;;;;;;;;;;;;;15.04;56.80;102039.56;5003790;28;19913;-90
2022/07/05 03:24:16;;;;;;;;;;;;;;;15.03;56.92;102038.72;5002245;28;19909;-90
2022/07/05 03:26:41;;;;;;;;;;;;;;;15.03;57.16;102049.38;5003917;28;21259;-91
2022/07/05 03:29:07;;;;;;;;;;;;;;;14.99;57.46;102046.88;4994692;28;19922;-91
2022/07/05 03:31:32;;;;;;;;;;;;;;;15.00;59.90;102044.16;4999882;28;20078;-90
2022/07/05 03:33:57;;;;;;;;;;;;;;;14.97;59.61;102046.97;5005145;28;20544;-90
2022/07/05 03:36:22;;;;;;;;;;;;;;;14.96;57.70;102053.19;5005122;28;20567;-91
2022/07/05 03:38:48;;;;;;;;;;;;;;;14.97;58.59;102056.75;5006120;28;19917;-90
2022/07/05 03:41:13;;;;;;;;;;;;;;;15.01;59.31;102051.25;5004429;28;19920;-90
2022/07/05 03:43:38;;;;;;;;;;;;;;;15.03;59.47;102044.03;5005767;28;19940;-90
2022/07/05 03:46:03;;;;;;;;;;;;;;;15.03;56.31;102045.84;5008213;28;19917;-90
2022/07/05 03:48:28;;;;;;;;;;;;;;;15.00;57.50;102049.47;5005187;28;19920;-90
2022/07/05 03:50:54;;;;;;;;;;;;;;;14.96;56.90;102047.84;5005254;28;20361;-91
2022/07/05 03:53:19;;;;;;;;;;;;;;;14.91;56.75;102047.16;5002683;28;19914;-90
2022/07/05 03:55:44;;;;;;;;;;;;;;;14.79;57.61;102056.53;5005277;28;19983;-90
2022/07/05 03:58:10;;;;;;;;;;;;;;;14.78;57.65;102053.88;4996452;28;20261;-90
2022/07/05 04:00:35;;;;;;;;;;;;;;;14.77;59.94;102058.34;4993475;28;19952;-90
2022/07/05 04:03:00;;;;;;;;;;;;;;;14.66;59.74;102059.69;5006281;28;19914;-90
2022/07/05 04:05:26;;;;;;;;;;;;;;;14.68;58.64;102065.81;5002790;28;19928;-90
2022/07/05 04:07:54;;;;;;;;;;;;;;;14.76;58.02;102064.59;5001759;28;20317;-91
2022/07/05 04:10:19;;;;;;;;;;;;;;;14.73;60.91;102071.84;5007768;28;20004;-90
2022/07/05 04:12:45;;;;;;;;;;;;;;;14.66;61.95;102068.56;5007830;28;20448;-90
2022/07/05 04:15:10;;;;;;;;;;;;;;;14.59;62.03;102064.38;5005705;28;20440;-91
2022/07/05 04:17:45;;;;;;;;;;;;;;;14.66;60.96;102070.34;5009521;28;19967;-91
2022/07/05 04:20:10;;;;;;;;;;;;;;;14.72;59.73;102073.63;5007445;28;19913;-90
2022/07/05 04:22:35;;;;;;;;;;;;;;;14.74;60.52;102074.47;5002691;28;19917;-90
2022/07/05 04:25:19;;;;;;;;;;;;;;;14.70;61.30;102074.63;5004192;28;21409;-90
2022/07/05 04:27:51;;;;;;;;;;;;;;;14.62;62.71;102074.91;5001101;28;20328;-90
2022/07/05 04:30:17;;;;;;;;;;;;;;;14.60;63.14;102079.44;4990108;28;20367;-90
2022/07/05 04:32:43;;;;;;;;;;;;;;;14.69;62.01;102071.09;5008664;28;19952;-90
2022/07/05 04:35:08;;;;;;;;;;;;;;;14.70;60.75;102077.28;5006035;28;19920;-90
2022/07/05 04:37:34;;;;;;;;;;;;;;;14.82;62.71;102073.28;5004714;28;19944;-90
2022/07/05 04:39:59;;;;;;;;;;;;;;;15.03;60.95;102072.47;5008949;28;20331;-90
2022/07/05 04:42:24;;;;;;;;;;;;;;;15.17;59.18;102075.47;5005626;28;19924;-90
2022/07/05 04:44:49;;;;;;;;;;;;;;;15.29;58.49;102076.75;5006534;28;19939;-90
2022/07/05 04:47:14;;;;;;;;;;;;;;;15.41;58.43;102080.72;5017932;28;19901;-90
2022/07/05 04:49:40;;;;;;;;;;;;;;;15.54;58.41;102071.31;5020207;28;19921;-90
2022/07/05 04:52:05;;;;;;;;;;;;;;;15.49;59.79;102074.16;5007136;28;19930;-90
2022/07/05 04:54:30;;;;;;;;;;;;;;;15.63;62.92;102068.25;5007556;28;19964;-90
2022/07/05 04:56:56;;;;;;;;;;;;;;;15.67;61.22;102066.38;5004326;28;19914;-90
2022/07/05 04:59:21;;;;;;;;;;;;;;;15.65;64.56;102066.41;5008300;28;19940;-90
2022/07/05 05:01:46;;;;;;;;;;;;;;;15.63;60.60;102070.94;5006775;28;20427;-90
2022/07/05 05:04:11;;;;;;;;;;;;;;;15.66;63.29;102064.63;4991750;28;20408;-90
2022/07/05 05:06:36;;;;;;;;;;;;;;;15.69;60.70;102073.38;5007010;28;20144;-89
2022/07/05 05:09:02;;;;;;;;;;;;;;;15.87;62.15;102065.53;5007431;28;19909;-90
2022/07/05 05:11:27;;;;;;;;;;;;;;;15.92;64.21;102052.84;5003572;28;19951;-90
2022/07/05 05:13:53;;;;;;;;;;;;;;;15.97;61.25;102058.84;5008990;28;19953;-90
2022/07/05 05:16:18;;;;;;;;;;;;;;;16.01;60.46;102071.13;5004908;28;19976;-90
2022/07/05 05:18:43;;;;;;;;;;;;;;;16.07;61.45;102086.88;5006998;28;19921;-91
2022/07/05 05:21:08;;;;;;;;;;;;;;;16.16;62.36;102075.78;5003822;28;19905;-91
2022/07/05 05:23:34;;;;;;;;;;;;;;;16.29;60.77;102069.00;5001268;28;19967;-91
2022/07/05 05:25:59;;;;;;;;;;;;;;;16.42;63.07;102077.31;5009440;28;19967;-91
2022/07/05 05:28:24;;;;;;;;;;;;;;;16.57;62.30;102075.75;5005624;28;19921;-91
2022/07/05 05:30:49;;;;;;;;;;;;;;;16.75;61.21;102084.75;5002287;28;19913;-90
2022/07/05 05:33:14;;;;;;;;;;;;;;;16.91;58.22;102084.91;5006947;28;19921;-91
2022/07/05 05:35:40;;;;;;;;;;;;;;;16.99;58.19;102082.75;5007867;28;20363;-91
2022/07/05 05:38:05;;;;;;;;;;;;;;;17.08;59.78;102083.19;5004496;28;19925;-91
2022/07/05 05:40:30;;;;;;;;;;;;;;;17.22;59.42;102095.88;5002454;28;20232;-91
2022/07/05 05:42:56;;;;;;;;;;;;;;;17.31;57.55;102098.13;4979839;28;19922;-91
2022/07/05 05:45:22;;;;;;;;;;;;;;;17.43;59.23;102101.13;4995641;28;19913;-91
2022/07/05 05:47:47;;;;;;;;;;;;;;;17.55;58.05;102098.72;5011591;28;19913;-91
2022/07/05 05:50:12;;;;;;;;;;;;;;;17.58;58.52;102103.06;5008235;28;20376;-91
2022/07/05 05:52:38;;;;;;;;;;;;;;;17.66;58.40;102110.69;5007736;28;19988;-91
2022/07/05 05:55:05;;;;;;;;;;;;;;;17.69;59.62;102115.91;5005887;28;20023;-91
2022/07/05 05:57:30;;;;;;;;;;;;;;;17.78;59.08;102124.34;5005121;28;19925;-92
2022/07/05 05:59:56;;;;;;;;;;;;;;;17.83;58.22;102108.94;5002830;28;19917;-91
2022/07/05 06:02:21;;;;;;;;;;;;;;;17.73;60.10;102107.69;5005154;28;20000;-91
2022/07/05 06:04:46;;;;;;;;;;;;;;;17.59;61.14;102112.81;5008129;28;20022;-91
2022/07/05 06:07:11;;;;;;;;;;;;;;;17.64;59.24;102120.59;5003438;28;19917;-91
2022/07/05 06:09:36;;;;;;;;;;;;;;;17.70;60.71;102122.97;4990803;28;20319;-92
2022/07/05 06:12:02;;;;;;;;;;;;;;;17.82;59.52;102120.59;5004490;28;19925;-92
2022/07/05 06:14:27;;;;;;;;;;;;;;;17.88;60.96;102119.41;5005007;28;20004;-90
2022/07/05 06:16:52;;;;;;;;;;;;;;;17.76;61.10;102120.00;5000837;28;20237;-92
2022/07/05 06:19:17;;;;;;;;;;;;;;;17.77;60.58;102121.78;5007650;28;19921;-92
2022/07/05 06:21:43;;;;;;;;;;;;;;;18.03;60.11;102115.09;4999272;28;20348;-91
2022/07/05 06:24:08;;;;;;;;;;;;;;;18.19;58.10;102116.03;5004776;28;19918;-91
2022/07/05 06:26:33;;;;;;;;;;;;;;;18.36;59.90;102125.84;5004262;28;19917;-90
2022/07/05 06:28:58;;;;;;;;;;;;;;;18.45;58.44;102132.53;5008389;28;19917;-90
2022/07/05 06:31:23;;;;;;;;;;;;;;;18.52;57.62;102128.63;5004555;28;20384;-90
2022/07/05 06:33:49;;;;;;;;;;;;;;;18.57;59.19;102123.88;5005864;28;20035;-90
2022/07/05 06:36:14;;;;;;;;;;;;;;;18.60;59.05;102129.03;4990059;28;20044;-90
2022/07/05 06:38:39;;;;;;;;;;;;;;;18.61;58.48;102130.81;5007543;28;19917;-90
2022/07/05 06:41:04;;;;;;;;;;;;;;;18.64;58.12;102133.28;5005073;28;20392;-90
2022/07/05 06:43:29;;;;;;;;;;;;;;;18.72;58.03;102133.78;5003489;28;20028;-90
2022/07/05 06:45:55;;;;;;;;;;;;;;;18.93;57.29;102133.56;5002374;28;19939;-90
2022/07/05 06:48:21;;;;;;;;;;;;;;;18.96;58.19;102136.09;5007347;28;19917;-90
2022/07/05 06:50:46;;;;;;;;;;;;;;;18.98;57.28;102144.91;5008949;28;20015;-89
2022/07/05 06:53:12;;;;;;;;;;;;;;;19.23;57.76;102141.75;5007080;28;20289;-89
2022/07/05 06:55:37;;;;;;;;;;;;;;;19.40;57.04;102147.03;5007851;28;20415;-90
2022/07/05 06:58:03;;;;;;;;;;;;;;;19.37;57.35;102139.16;5005775;28;19968;-90
2022/07/05 07:00:29;;;;;;;;;;;;;;;19.37;56.37;102139.16;5008093;28;19917;-90
2022/07/05 07:02:54;;;;;;;;;;;;;;;19.48;57.11;102141.22;5005573;28;20058;-90
2022/07/05 07:05:19;;;;;;;;;;;;;;;19.51;56.45;102146.44;5005303;28;19917;-90
2022/07/05 07:10:28;;;;;;;;;;;;;;;19.54;55.56;102144.44;5006531;28;19928;-90
2022/07/05 07:12:53;;;;;;;;;;;;;;;19.50;55.90;102145.56;5006962;28;20285;-90
2022/07/05 07:15:19;;;;;;;;;;;;;;;19.55;55.92;102139.94;5007709;28;20356;-90
2022/07/05 07:17:44;;;;;;;;;;;;;;;19.74;55.57;102137.94;5008327;28;20261;-90
2022/07/05 07:20:09;;;;;;;;;;;;;;;19.90;54.77;102142.41;5007451;28;19963;-90
2022/07/05 07:22:34;;;;;;;;;;;;;;;20.21;55.12;102141.47;5006531;28;19957;-90
2022/07/05 07:25:00;;;;;;;;;;;;;;;20.56;54.23;102139.34;5003460;28;19961;-90
2022/07/05 07:27:25;;;;;;;;;;;;;;;20.75;54.70;102141.75;5004405;28;20059;-91
2022/07/05 07:29:50;;;;;;;;;;;;;;;20.86;54.51;102137.44;5005848;28;19910;-91
2022/07/05 07:32:15;;;;;;;;;;;;;;;21.07;53.91;102145.09;5006545;28;20539;-91
2022/07/05 07:34:41;;;;;;;;;;;;;;;21.08;53.85;102150.41;5004204;28;19921;-91
2022/07/05 07:37:08;;;;;;;;;;;;;;;21.20;53.17;102147.88;5007363;28;19921;-92
2022/07/05 07:39:33;;;;;;;;;;;;;;;21.15;54.11;102156.25;5007326;28;19975;-91
2022/07/05 07:41:59;;;;;;;;;;;;;;;21.08;53.79;102155.78;5006706;28;19922;-91
2022/07/05 07:44:24;;;;;;;;;;;;;;;21.14;54.05;102155.38;5008339;28;19914;-92
2022/07/05 07:46:50;;;;;;;;;;;;;;;21.32;53.99;102158.75;5015179;28;19992;-93
2022/07/05 07:49:16;;;;;;;;;;;;;;;21.51;53.54;102168.34;5010988;28;19993;-94
2022/07/05 07:51:42;;;;;;;;;;;;;;;21.57;53.00;102158.03;4993282;28;20360;-91
2022/07/05 07:54:07;;;;;;;;;;;;;;;21.56;53.44;102153.59;5010671;28;19955;-91
2022/07/05 07:56:32;;;;;;;;;;;;;;;21.63;53.05;102162.13;5008662;28;19913;-92
2022/07/05 07:58:58;;;;;;;;;;;;;;;21.78;53.07;102157.59;5009099;28;20003;-91
2022/07/05 08:01:23;;;;;;;;;;;;;;;21.99;52.18;102161.50;5007600;28;20004;-92
2022/07/05 08:03:48;;;;;;;;;;;;;;;21.84;52.77;102165.25;5007251;28;20340;-92
2022/07/05 08:06:15;;;;;;;;;;;;;;;21.92;53.83;102165.59;5005770;28;21373;-91
2022/07/05 08:08:41;;;;;;;;;;;;;;;21.98;52.76;102161.63;5004127;28;19917;-91
2022/07/05 08:11:08;;;;;;;;;;;;;;;22.21;52.17;102158.28;5008977;28;20341;-91
2022/07/05 08:13:33;;;;;;;;;;;;;;;22.46;51.81;102160.13;5010063;28;19914;-91
2022/07/05 08:15:59;;;;;;;;;;;;;;;22.51;52.08;102166.06;5010152;28;20364;-90
2022/07/05 08:23:52;;;;;;;;;;;;;;;22.64;51.38;102166.94;5008435;28;19920;-90
2022/07/05 08:26:18;;;;;;;;;;;;;;;22.89;51.18;102165.22;5008398;28;19925;-90
2022/07/05 08:28:43;;;;;;;;;;;;;;;22.91;51.14;102164.16;5007027;28;20352;-90
2022/07/05 08:31:08;;;;;;;;;;;;;;;22.69;51.21;102165.75;5009271;28;19917;-90
2022/07/05 08:33:33;;;;;;;;;;;;;;;22.80;51.11;102172.13;4996077;28;19921;-90
2022/07/05 08:35:58;;;;;;;;;;;;;;;22.69;51.36;102176.53;5009057;28;19921;-90
2022/07/05 08:38:24;;;;;;;;;;;;;;;23.13;50.40;102168.03;5003306;28;20320;-90
2022/07/05 08:40:50;;;;;;;;;;;;;;;23.71;49.42;102162.91;5008982;28;20341;-88
2022/07/05 08:43:15;;;;;;;;;;;;;;;23.80;49.69;102163.06;5010200;28;19909;-89
2022/07/05 08:45:42;;;;;;;;;;;;;;;24.00;49.05;102174.22;5006347;28;19921;-90
2022/07/05 08:48:08;;;;;;;;;;;;;;;23.97;48.55;102166.31;5008939;28;19960;-90
2022/07/05 08:50:35;;;;;;;;;;;;;;;24.04;48.76;102165.75;5008368;28;19913;-89
2022/07/05 08:53:00;;;;;;;;;;;;;;;23.81;48.21;102172.03;5010267;28;20011;-90
2022/07/05 08:55:26;;;;;;;;;;;;;;;23.93;48.59;102177.38;5011052;28;20005;-89
2022/07/05 08:57:51;;;;;;;;;;;;;;;23.98;48.71;102168.94;5009391;28;20269;-90
2022/07/05 09:00:16;;;;;;;;;;;;;;;24.23;48.09;102153.53;5010748;28;19909;-90
2022/07/05 09:02:41;;;;;;;;;;;;;;;25.26;46.89;102159.84;5006685;28;20371;-91
2022/07/05 09:05:07;;;;;;;;;;;;;;;26.08;44.68;102165.69;5005505;28;19917;-90
2022/07/05 09:07:36;;;;;;;;;;;;;;;26.03;45.11;102160.66;5009233;28;19913;-90
2022/07/05 09:10:02;;;;;;;;;;;;;;;26.01;45.38;102164.47;5003336;28;19913;-90
2022/07/05 09:12:27;;;;;;;;;;;;;;;26.10;45.11;102174.53;4998985;28;19918;-90
2022/07/05 09:14:53;;;;;;;;;;;;;;;26.45;44.73;102169.69;5008260;28;20498;-91
2022/07/05 09:17:19;;;;;;;;;;;;;;;26.49;44.01;102170.28;5008462;28;20339;-91
2022/07/05 09:19:51;;;;;;;;;;;;;;;26.44;44.28;102167.13;5008983;28;20162;-90
2022/07/05 09:22:16;;;;;;;;;;;;;;;26.46;44.53;102162.41;5004975;28;20292;-88
2022/07/05 09:24:45;;;;;;;;;;;;;;;26.77;43.95;102166.03;5009027;28;19917;-88
2022/07/05 09:27:11;;;;;;;;;;;;;;;26.90;43.47;102163.91;5008177;28;20284;-88
2022/07/05 09:29:36;;;;;;;;;;;;;;;27.04;41.13;102175.41;5010317;28;19924;-89
2022/07/05 09:32:01;;;;;;;;;;;;;;;26.96;42.26;102170.69;5007668;28;19923;-88
2022/07/05 09:34:29;;;;;;;;;;;;;;;27.21;42.13;102177.53;5010028;28;19944;-88
2022/07/05 09:36:54;;;;;;;;;;;;;;;27.00;42.12;102169.41;5009852;28;19918;-89
2022/07/05 09:39:29;;;;;;;;;;;;;;;26.61;42.32;102168.34;5006527;28;19922;-88
2022/07/05 09:42:10;;;;;;;;;;;;;;;26.81;42.21;102174.72;5007402;28;19920;-91
2022/07/05 09:44:38;;;;;;;;;;;;;;;27.25;41.57;102168.09;5008552;28;19960;-90
2022/07/05 09:47:09;;;;;;;;;;;;;;;27.50;40.45;102161.28;4989319;28;20369;-91
2022/07/05 09:49:35;;;;;;;;;;;;;;;27.24;38.89;102163.69;5009391;28;20072;-91
2022/07/05 09:52:00;;;;;;;;;;;;;;;27.57;39.26;102159.75;5007255;28;20565;-90
2022/07/05 09:54:25;;;;;;;;;;;;;;;28.00;37.95;102150.38;5005965;28;19920;-91
2022/07/05 09:56:50;;;;;;;;;;;;;;;28.05;36.87;102164.38;5012854;28;19913;-91
2022/07/05 09:59:18;;;;;;;;;;;;;;;27.89;34.83;102164.97;5009544;28;20403;-91
2022/07/05 10:01:44;;;;;;;;;;;;;;;27.14;36.87;102158.22;5004833;28;19925;-92
2022/07/05 10:04:09;;;;;;;;;;;;;;;26.53;39.12;102151.88;5005444;28;20404;-92
2022/07/05 10:06:34;;;;;;;;;;;;;;;26.31;39.71;102153.72;5006841;28;19922;-91
2022/07/05 10:09:00;;;;;;;;;;;;;;;26.13;40.46;102160.72;5008811;28;20008;-93
2022/07/05 10:11:26;;;;;;;;;;;;;;;26.03;40.28;102157.94;5005956;28;19971;-92
2022/07/05 10:13:53;;;;;;;;;;;;;;;25.88;40.10;102159.22;4999672;28;20238;-92
2022/07/05 10:16:19;;;;;;;;;;;;;;;25.58;39.91;102158.06;5007379;28;20442;-91
2022/07/05 10:18:52;;;;;;;;;;;;;;;25.34;40.12;102162.78;5008923;28;19949;-91
2022/07/05 10:21:17;;;;;;;;;;;;;;;25.32;40.65;102165.63;5013073;28;20462;-90
2022/07/05 10:23:53;;;;;;;;;;;;;;;25.67;39.81;102164.56;5012213;28;20007;-90
2022/07/05 10:26:19;;;;;;;;;;;;;;;25.74;39.82;102160.38;5011749;28;19924;-90
2022/07/05 10:28:49;;;;;;;;;;;;;;;25.55;40.16;102162.84;5000800;28;19917;-90
2022/07/05 10:31:15;;;;;;;;;;;;;;;25.49;40.12;102160.66;5013334;28;19923;-92
2022/07/05 10:33:40;;;;;;;;;;;;;;;25.25;40.71;102167.09;5015676;28;19952;-91
2022/07/05 10:36:06;;;;;;;;;;;;;;;25.11;41.11;102167.38;5009506;28;19948;-91
2022/07/05 10:38:35;;;;;;;;;;;;;;;25.16;41.22;102165.16;5005056;28;19917;-90
2022/07/05 10:41:03;;;;;;;;;;;;;;;25.39;40.89;102172.25;5005984;28;19920;-91
2022/07/05 10:43:28;;;;;;;;;;;;;;;26.18;40.80;102170.19;5005884;28;19928;-91
2022/07/05 10:45:53;;;;;;;;;;;;;;;26.77;38.40;102166.03;5005257;28;19921;-91
2022/07/05 10:48:22;;;;;;;;;;;;;;;26.91;39.42;102157.53;5007478;28;19920;-91
2022/07/05 10:50:58;;;;;;;;;;;;;;;27.01;39.15;102164.84;4994030;28;19913;-91
2022/07/05 10:53:49;;;;;;;;;;;;;;;26.93;38.99;102155.53;5007098;28;19926;-91
2022/07/05 10:56:14;;;;;;;;;;;;;;;27.04;38.91;102159.13;5005832;28;19913;-91
2022/07/05 10:58:43;;;;;;;;;;;;;;;27.32;38.26;102163.81;5005505;28;20253;-91
2022/07/05 11:01:12;;;;;;;;;;;;;;;27.58;36.53;102161.47;4999009;28;19914;-91
2022/07/05 11:03:38;;;;;;;;;;;;;;;27.55;37.05;102164.44;5011916;28;19918;-90
2022/07/05 11:06:04;;;;;;;;;;;;;;;27.82;36.62;102161.09;5009012;28;19909;-92
2022/07/05 11:08:32;;;;;;;;;;;;;;;27.75;35.79;102154.53;5007114;28;20340;-90
2022/07/05 11:11:11;;;;;;;;;;;;;;;27.99;35.26;102159.53;5008470;28;19913;-92
2022/07/05 11:13:40;;;;;;;;;;;;;;;27.73;35.99;102159.22;5004023;28;20331;-91
2022/07/05 11:16:21;;;;;;;;;;;;;;;27.24;37.96;102162.81;4998950;28;20373;-91
2022/07/05 11:18:47;;;;;;;;;;;;;;;26.83;38.03;102170.91;5009552;28;20019;-91
2022/07/05 11:21:18;;;;;;;;;;;;;;;26.57;37.37;102169.59;5014748;28;19917;-91
2022/07/05 11:23:43;;;;;;;;;;;;;;;26.20;37.29;102170.88;5013345;28;20475;-91
2022/07/05 11:26:09;;;;;;;;;;;;;;;25.91;38.50;102167.09;5014623;28;19968;-91
2022/07/05 11:28:47;;;;;;;;;;;;;;;25.91;38.31;102167.09;5011639;28;20384;-91
2022/07/05 11:31:32;;;;;;;;;;;;;;;26.16;37.92;102164.03;5011019;28;20004;-90
2022/07/05 11:34:11;;;;;;;;;;;;;;;26.77;37.16;102157.88;5014801;28;19916;-91
2022/07/05 11:36:36;;;;;;;;;;;;;;;27.10;36.60;102161.34;5010772;28;19913;-91
2022/07/05 11:39:12;;;;;;;;;;;;;;;27.37;36.39;102158.88;5011530;28;20352;-90
2022/07/05 11:41:38;;;;;;;;;;;;;;;27.56;36.32;102160.75;5008638;28;19959;-91
2022/07/05 11:44:05;;;;;;;;;;;;;;;27.85;35.39;102154.53;5011412;28;19920;-91
2022/07/05 11:46:32;;;;;;;;;;;;;;;28.10;35.10;102153.06;5013714;28;20408;-91
2022/07/05 11:48:59;;;;;;;;;;;;;;;28.13;35.04;102158.25;4992571;28;19921;-92
2022/07/05 11:51:24;;;;;;;;;;;;;;;28.43;34.96;102154.50;5009479;28;19913;-91
2022/07/05 11:53:49;;;;;;;;;;;;;;;28.47;34.51;102151.31;4996972;28;19972;-91
2022/07/05 11:56:15;;;;;;;;;;;;;;;28.47;33.44;102145.88;5016711;28;20291;-91
2022/07/05 11:58:40;;;;;;;;;;;;;;;28.43;34.37;102152.63;5010792;28;20005;-92
2022/07/05 12:01:06;;;;;;;;;;;;;;;28.73;33.62;102148.84;5012000;28;20292;-91
2022/07/05 12:03:31;;;;;;;;;;;;;;;28.78;34.06;102139.38;5013643;28;20427;-92
2022/07/05 12:05:56;;;;;;;;;;;;;;;28.82;33.42;102130.75;5012634;28;19913;-91
2022/07/05 12:08:22;;;;;;;;;;;;;;;28.95;32.74;102144.88;5011265;28;20013;-92
2022/07/05 12:13:42;;;;;;;;;;;;;;;28.91;33.58;102142.56;5006173;28;19924;-92
2022/07/05 12:16:07;;;;;;;;;;;;;;;29.10;31.82;102138.94;5014309;28;20007;-92
2022/07/05 12:18:45;;;;;;;;;;;;;;;29.20;32.46;102128.88;5012410;28;21376;-93
2022/07/05 12:21:14;;;;;;;;;;;;;;;29.56;31.77;102137.13;5014068;28;19996;-92
2022/07/05 12:23:41;;;;;;;;;;;;;;;29.47;32.37;102130.69;5012656;28;19924;-92
2022/07/05 12:26:06;;;;;;;;;;;;;;;29.28;32.97;102137.13;5013226;28;19921;-92
2022/07/05 12:28:32;;;;;;;;;;;;;;;28.77;32.47;102146.66;5012540;28;19940;-91
2022/07/05 12:30:58;;;;;;;;;;;;;;;28.19;31.84;102141.31;5006476;28;19952;-91
2022/07/05 12:33:23;;;;;;;;;;;;;;;27.93;33.29;102144.66;5010036;28;20003;-92
2022/07/05 12:35:50;;;;;;;;;;;;;;;27.83;33.64;102138.34;5012917;28;19944;-91
2022/07/05 12:38:19;;;;;;;;;;;;;;;28.09;33.49;102132.34;5012748;28;19921;-92
2022/07/05 12:40:46;;;;;;;;;;;;;;;28.29;32.67;102125.84;5004024;28;20426;-91